Change the Weather History Date:

Sunday, September 15, 2013

  Actual Average Record
Temperature  
Mean Temperature 56 °F -  
Max Temperature 62 °F 68 °F 88 °F (1948)
Min Temperature 51 °F 46 °F 33 °F (1964)
Degree Days  
Heating Degree Days 8    
Growing Degree Days 6 (Base 50)    
Moisture  
Dew Point 49 °F    
Average Humidity 74    
Maximum Humidity 100    
Minimum Humidity 48    
Precipitation  
Precipitation 0.00 in - - ()
Sea Level Pressure  
Sea Level Pressure 30.16 in    
Wind  
Wind Speed 5 mph (NNE)    
Max Wind Speed 10 mph    
Max Gust Speed 16 mph    
Visibility 10 miles    
Events      
Averages and records for this station are not official NWS values.
T = Trace of Precipitation, MM = Missing Value Source: NWS Daily Summary

Daily Weather History Graph

Daily Weather History Graph

Search for Another Location

Airport or City:

Trip Planner

Search our weather history database for the weather conditions in past years. The results will help you decide how hot, cold, wet, or windy it might be!

Date:

Astronomy

Sep. 15, 2013 Rise Set
Actual Time 7:02 AM CDT 7:35 PM CDT
Civil Twilight 6:32 AM CDT 8:05 PM CDT
Nautical Twilight 5:56 AM CDT 8:41 PM CDT
Astronomical Twilight 5:19 AM CDT 9:18 PM CDT
Moon 5:13 PM CDT (9/15) 2:30 AM CDT (9/15)
Length of Visible Light 13h 32m
Length of Day
12h 32m
Waxing Gibbous, 82% of the Moon is Illuminated
Sep 15
Waxing Gibbous
Sep 19
Full
Sep 26
Last Quarter
Oct 4
New
Oct 11
First Quarter

Hourly Weather History & Observations

Time (CDT) Temp. Dew Point Humidity Pressure Visibility Wind Dir Wind Speed Gust Speed Precip Events Conditions
12:13 AM 55.4 °F 55.4 °F 100% 29.93 in 10.0 mi ENE 4.6 mph - N/A   Overcast
12:33 AM 55.4 °F 55.4 °F 100% 29.94 in 10.0 mi NE 4.6 mph - N/A   Overcast
12:53 AM 55.4 °F 53.6 °F 94% 29.94 in 10.0 mi NNE 3.5 mph - N/A   Scattered Clouds
1:13 AM 55.4 °F 53.6 °F 94% 29.94 in 10.0 mi NNE 3.5 mph - N/A   Scattered Clouds
1:33 AM 55.4 °F 53.6 °F 94% 29.94 in 10.0 mi NNE 4.6 mph - N/A   Overcast
1:53 AM 55.4 °F 53.6 °F 94% 29.95 in 10.0 mi NE 5.8 mph - N/A   Overcast
2:13 AM 55.4 °F 53.6 °F 94% 29.96 in 10.0 mi NNE 3.5 mph - N/A   Overcast
2:33 AM 55.4 °F 53.6 °F 94% 29.97 in 10.0 mi North 4.6 mph - N/A   Overcast
2:54 AM 55.4 °F 53.6 °F 94% 29.98 in 10.0 mi North 4.6 mph - N/A   Overcast
3:13 AM 55.4 °F 53.6 °F 94% 29.98 in 10.0 mi NNE 4.6 mph - N/A   Overcast
3:33 AM 55.4 °F 53.6 °F 94% 29.98 in 10.0 mi NNE 4.6 mph - N/A   Overcast
3:53 AM 55.4 °F 53.6 °F 94% 29.98 in 10.0 mi North 4.6 mph - N/A   Overcast
4:13 AM 55.4 °F 53.6 °F 94% 29.98 in 10.0 mi North 3.5 mph - N/A   Mostly Cloudy
4:33 AM 55.4 °F 53.6 °F 94% 30.00 in 10.0 mi North 3.5 mph - N/A   Overcast
4:54 AM 55.4 °F 53.6 °F 94% 30.01 in 10.0 mi North 3.5 mph - N/A   Overcast
5:13 AM 55.4 °F 53.6 °F 94% 30.01 in 10.0 mi North 4.6 mph - N/A   Overcast
5:33 AM 57.2 °F 55.4 °F 94% 30.02 in 10.0 mi North 4.6 mph - N/A   Overcast
5:53 AM 57.2 °F 55.4 °F 94% 30.03 in 10.0 mi NNE 4.6 mph - N/A   Overcast
6:13 AM 57.2 °F 55.4 °F 94% 30.04 in 10.0 mi North 4.6 mph - N/A   Overcast
6:33 AM 57.2 °F 55.4 °F 94% 30.05 in 10.0 mi North 3.5 mph - N/A   Overcast
6:53 AM 57.2 °F 55.4 °F 94% 30.06 in 10.0 mi North 3.5 mph - N/A   Overcast
7:13 AM 57.2 °F 55.4 °F 94% 30.06 in 10.0 mi NNE 3.5 mph - N/A   Overcast
7:33 AM 57.2 °F 55.4 °F 94% 30.07 in 10.0 mi NNE 3.5 mph - N/A   Overcast
7:53 AM 57.2 °F 55.4 °F 94% 30.09 in 10.0 mi Calm Calm - N/A   Overcast
8:13 AM 57.2 °F 55.4 °F 94% 30.10 in 10.0 mi NNE 3.5 mph - N/A   Overcast
8:33 AM 57.2 °F 55.4 °F 94% 30.11 in 10.0 mi NNE 4.6 mph - N/A   Overcast
8:53 AM 59.0 °F 53.6 °F 82% 30.12 in 10.0 mi NNE 5.8 mph - N/A   Overcast
9:13 AM 59.0 °F 51.8 °F 77% 30.13 in 10.0 mi North 5.8 mph - N/A   Overcast
9:33 AM 59.0 °F 51.8 °F 77% 30.14 in 10.0 mi North 6.9 mph - N/A   Overcast
9:53 AM 60.8 °F 51.8 °F 72% 30.15 in 10.0 mi NNE 6.9 mph - N/A   Mostly Cloudy
10:13 AM 60.8 °F 50.0 °F 68% 30.16 in 10.0 mi NNE 10.4 mph - N/A   Scattered Clouds
10:33 AM 60.8 °F 50.0 °F 68% 30.17 in 10.0 mi NNE 9.2 mph - N/A   Mostly Cloudy
10:53 AM 60.8 °F 50.0 °F 68% 30.18 in 10.0 mi North 5.8 mph - N/A   Overcast
11:13 AM 60.8 °F 51.8 °F 72% 30.19 in 10.0 mi North 5.8 mph - N/A   Overcast
11:33 AM 60.8 °F 50.0 °F 68% 30.20 in 10.0 mi NNE 10.4 mph - N/A   Overcast
11:53 AM 60.8 °F 50.0 °F 68% 30.20 in 10.0 mi North 8.1 mph 16.1 mph N/A   Mostly Cloudy
12:13 PM 62.6 °F 48.2 °F 59% 30.21 in 10.0 mi NNE 8.1 mph - N/A   Scattered Clouds
12:33 PM 62.6 °F 48.2 °F 59% 30.21 in 10.0 mi NNE 9.2 mph - N/A   Scattered Clouds
12:53 PM 62.6 °F 48.2 °F 59% 30.22 in 10.0 mi North 10.4 mph - N/A   Scattered Clouds
1:13 PM 62.6 °F 48.2 °F 59% 30.22 in 10.0 mi NNE 6.9 mph - N/A   Scattered Clouds
1:33 PM 62.6 °F 46.4 °F 55% 30.22 in 10.0 mi NNE 8.1 mph - N/A   Scattered Clouds
1:53 PM 62.6 °F 46.4 °F 55% 30.22 in 10.0 mi NNE 6.9 mph - N/A   Scattered Clouds
2:13 PM 62.6 °F 46.4 °F 55% 30.23 in 10.0 mi North 6.9 mph - N/A   Scattered Clouds
2:33 PM 62.6 °F 46.4 °F 55% 30.23 in 10.0 mi NNE 6.9 mph - N/A   Scattered Clouds
2:53 PM 62.6 °F 46.4 °F 55% 30.24 in 10.0 mi ENE 8.1 mph - N/A   Scattered Clouds
3:13 PM 62.6 °F 46.4 °F 55% 30.24 in 10.0 mi NE 6.9 mph 16.1 mph N/A   Scattered Clouds
3:29 PM 62.6 °F 46.4 °F 55% 30.24 in 10.0 mi North 6.9 mph - N/A   Scattered Clouds
3:53 PM 62.6 °F 44.6 °F 52% 30.25 in 10.0 mi NE 8.1 mph - N/A   Clear
4:13 PM 62.6 °F 42.8 °F 48% 30.25 in 10.0 mi NNE 4.6 mph - N/A   Clear
4:33 PM 62.6 °F 44.6 °F 52% 30.24 in 10.0 mi NE 8.1 mph - N/A   Clear
4:53 PM 62.6 °F 44.6 °F 52% 30.24 in 10.0 mi North 5.8 mph - N/A   Clear
5:13 PM 62.6 °F 44.6 °F 52% 30.25 in 10.0 mi North 5.8 mph - N/A   Clear
5:33 PM 62.6 °F 44.6 °F 52% 30.25 in 10.0 mi NE 5.8 mph - N/A   Clear
5:53 PM 62.6 °F 42.8 °F 48% 30.25 in 10.0 mi NE 5.8 mph - N/A   Clear
6:13 PM 62.6 °F 42.8 °F 48% 30.25 in 10.0 mi ENE 6.9 mph - N/A   Clear
6:33 PM 62.6 °F 42.8 °F 48% 30.26 in 10.0 mi NE 5.8 mph - N/A   Clear
6:53 PM 60.8 °F 42.8 °F 52% 30.27 in 10.0 mi ENE 5.8 mph - N/A   Clear
7:13 PM 60.8 °F 44.6 °F 55% 30.27 in 10.0 mi Calm Calm - N/A   Clear
7:33 PM 59.0 °F 44.6 °F 59% 30.27 in 10.0 mi Calm Calm - N/A   Clear
7:53 PM 57.2 °F 44.6 °F 63% 30.28 in 10.0 mi Calm Calm - N/A   Clear
8:13 PM 55.4 °F 46.4 °F 72% 30.28 in 10.0 mi Calm Calm - N/A   Clear
8:33 PM 55.4 °F 44.6 °F 67% 30.29 in 10.0 mi Calm Calm - N/A   Clear
8:53 PM 55.4 °F 46.4 °F 72% 30.30 in 10.0 mi Calm Calm - N/A   Clear
9:13 PM 53.6 °F 44.6 °F 72% 30.30 in 10.0 mi Calm Calm - N/A   Clear
9:33 PM 53.6 °F 44.6 °F 72% 30.31 in 10.0 mi ENE 3.5 mph - N/A   Clear
9:53 PM 51.8 °F 44.6 °F 76% 30.31 in 10.0 mi East 3.5 mph - N/A   Clear
10:13 PM 51.8 °F 44.6 °F 76% 30.31 in 10.0 mi East 3.5 mph - N/A   Clear
10:33 PM 51.8 °F 44.6 °F 76% 30.32 in 10.0 mi East 3.5 mph - N/A   Clear
10:53 PM 51.8 °F 44.6 °F 76% 30.32 in 10.0 mi Calm Calm - N/A   Clear
11:13 PM 51.8 °F 44.6 °F 76% 30.32 in 10.0 mi Calm Calm - N/A   Clear
11:33 PM 51.8 °F 44.6 °F 76% 30.33 in 10.0 mi ESE 5.8 mph - N/A   Clear
11:53 PM 51.8 °F 42.8 °F 71% 30.33 in 10.0 mi East 5.8 mph - N/A   Clear